Time;durP1;ratioP1;P1;durP2;ratioP2;P2;SDS_P1;SDS_P2;PMS_P1;PMS_P2;Temp;Humidity;BMP_temperature;BMP_pressure;BME280_temperature;BME280_humidity;BME280_pressure;Samples;Min_cycle;Max_cycle;Signal;HPM_P1;HPM_P2
2021/11/02 00:00:05;;;;;;;3.33;3.00;;;9.30;99.90;;;;;;5096452;28;20224;-73
2021/11/02 00:02:32;;;;;;;2.90;2.58;;;9.20;99.90;;;;;;5096079;28;20229;-73
2021/11/02 00:05:00;;;;;;;2.85;2.30;;;9.20;99.90;;;;;;5096454;28;20296;-73
2021/11/02 00:07:27;;;;;;;3.90;2.83;;;9.10;99.90;;;;;;5096266;28;20242;-73
2021/11/02 00:10:05;;;;;;;3.05;2.13;;;9.20;99.90;;;;;;5096183;28;20198;-73
2021/11/02 00:12:34;;;;;;;3.97;2.33;;;9.30;99.90;;;;;;5095756;28;20294;-73
2021/11/02 00:15:01;;;;;;;4.20;2.72;;;9.40;99.90;;;;;;5096121;28;20553;-73
2021/11/02 00:17:29;;;;;;;3.90;3.00;;;9.40;99.90;;;;;;5096031;28;20241;-73
2021/11/02 00:19:58;;;;;;;4.15;3.15;;;9.50;99.90;;;;;;5096122;28;20284;-73
2021/11/02 00:22:27;;;;;;;3.42;3.03;;;9.60;99.90;;;;;;5095549;28;20222;-73
2021/11/02 00:25:04;;;;;;;4.43;3.35;;;9.60;99.90;;;;;;5096050;28;20282;-73
2021/11/02 00:27:34;;;;;;;3.50;2.65;;;9.60;99.90;;;;;;5095865;28;20667;-74
2021/11/02 00:30:01;;;;;;;3.85;2.95;;;9.60;99.90;;;;;;5095940;28;20681;-73
2021/11/02 00:32:28;;;;;;;4.45;2.90;;;9.60;99.90;;;;;;5095382;28;20696;-73
2021/11/02 00:34:57;;;;;;;3.25;2.70;;;9.50;99.90;;;;;;5095828;28;20205;-74
2021/11/02 00:37:24;;;;;;;3.05;2.60;;;9.50;99.90;;;;;;5095635;28;20294;-74
2021/11/02 00:39:51;;;;;;;2.97;2.40;;;9.60;99.90;;;;;;5096138;28;20221;-74
2021/11/02 00:42:18;;;;;;;3.05;2.13;;;9.60;99.90;;;;;;5095387;28;20225;-73
2021/11/02 00:44:55;;;;;;;2.95;2.60;;;9.70;99.90;;;;;;5095660;28;20293;-73
2021/11/02 00:47:24;;;;;;;3.92;2.60;;;9.80;99.90;;;;;;5095599;28;20205;-74
2021/11/02 00:49:51;;;;;;;4.53;3.25;;;9.80;99.90;;;;;;5095572;28;20208;-73
2021/11/02 00:52:18;;;;;;;4.13;3.33;;;9.80;99.90;;;;;;5095268;28;20228;-73
2021/11/02 00:54:45;;;;;;;4.28;3.53;;;9.80;99.90;;;;;;5095447;28;20210;-74
2021/11/02 00:57:11;;;;;;;5.18;3.75;;;9.70;99.90;;;;;;5095383;28;20560;-73
2021/11/02 00:59:39;;;;;;;3.40;2.90;;;9.70;99.90;;;;;;5095287;28;20752;-73
2021/11/02 01:02:08;;;;;;;4.20;2.53;;;9.60;99.90;;;;;;5094815;28;20230;-73
2021/11/02 01:04:36;;;;;;;3.88;2.00;;;9.70;99.90;;;;;;5095027;28;20202;-73
2021/11/02 01:07:04;;;;;;;1.90;1.60;;;9.70;99.90;;;;;;5095145;28;20203;-74
2021/11/02 01:09:31;;;;;;;2.08;1.40;;;9.80;99.90;;;;;;5094980;28;20296;-73
2021/11/02 01:11:57;;;;;;;1.35;0.95;;;9.90;99.90;;;;;;5094762;28;20224;-73
2021/11/02 01:14:24;;;;;;;1.15;0.95;;;10.00;99.90;;;;;;5095035;28;20198;-73
2021/11/02 01:16:51;;;;;;;2.03;1.00;;;10.10;99.90;;;;;;5095479;28;20305;-74
2021/11/02 01:19:19;;;;;;;1.40;1.30;;;10.20;99.90;;;;;;5095026;28;20229;-73
2021/11/02 01:21:46;;;;;;;1.25;1.15;;;10.30;99.90;;;;;;5094647;28;20232;-73
2021/11/02 01:24:13;;;;;;;2.75;1.38;;;10.40;99.90;;;;;;5094878;28;20629;-73
2021/11/02 01:26:40;;;;;;;1.15;1.10;;;10.50;99.90;;;;;;5094781;28;20689;-74
2021/11/02 01:29:07;;;;;;;1.23;1.10;;;10.50;99.90;;;;;;5094713;28;20691;-73
2021/11/02 01:31:34;;;;;;;1.52;1.20;;;10.60;99.90;;;;;;5094439;28;20218;-73
2021/11/02 01:34:01;;;;;;;1.50;1.40;;;10.60;99.90;;;;;;5094718;28;20205;-74
2021/11/02 01:36:29;;;;;;;3.08;2.30;;;10.60;99.90;;;;;;5094482;28;20296;-74
2021/11/02 01:38:56;;;;;;;2.53;2.30;;;10.60;99.90;;;;;;5094641;28;20210;-73
2021/11/02 01:41:25;;;;;;;3.28;2.97;;;10.60;99.90;;;;;;5094030;28;20236;-73
2021/11/02 01:43:53;;;;;;;4.95;3.25;;;10.50;99.90;;;;;;5094466;28;20230;-74
2021/11/02 01:46:23;;;;;;;2.90;2.55;;;10.50;99.90;;;;;;5094519;28;20259;-73
2021/11/02 01:48:51;;;;;;;4.30;3.63;;;10.40;99.90;;;;;;5094751;28;20622;-73
2021/11/02 01:51:18;;;;;;;6.10;3.88;;;10.40;99.90;;;;;;5094069;28;20234;-73
2021/11/02 01:53:46;;;;;;;5.07;4.13;;;10.30;99.90;;;;;;5094366;28;20218;-74
2021/11/02 01:56:13;;;;;;;7.32;4.00;;;10.20;99.90;;;;;;5094205;28;20289;-73
2021/11/02 01:58:43;;;;;;;3.88;3.47;;;10.00;99.90;;;;;;5094303;28;20294;-73
2021/11/02 02:01:13;;;;;;;4.53;3.50;;;10.00;99.90;;;;;;5093891;28;20233;-73
2021/11/02 02:03:48;;;;;;;5.80;4.25;;;9.90;99.90;;;;;;5094244;28;20208;-73
2021/11/02 02:06:26;;;;;;;4.93;4.25;;;9.90;99.90;;;;;;5094174;28;20564;-73
2021/11/02 02:09:02;;;;;;;4.22;3.83;;;9.90;99.90;;;;;;5094076;28;20564;-73
2021/11/02 02:11:37;;;;;;;5.40;4.70;;;9.80;99.90;;;;;;5093939;28;20684;-73
2021/11/02 02:14:14;;;;;;;3.85;2.60;;;9.70;99.90;;;;;;5094068;28;20206;-74
2021/11/02 02:16:44;;;;;;;4.25;3.85;;;9.80;99.90;;;;;;5094035;28;20209;-73
2021/11/02 02:19:26;;;;;;;3.67;3.38;;;9.80;99.90;;;;;;5093907;28;20255;-74
2021/11/02 02:22:07;;;;;;;4.95;3.47;;;9.90;99.90;;;;;;5093393;28;20236;-73
2021/11/02 02:24:50;;;;;;;6.53;4.38;;;10.00;99.90;;;;;;5094157;28;20209;-73
2021/11/02 02:27:32;;;;;;;4.85;3.88;;;10.00;99.90;;;;;;5093856;28;20541;-74
2021/11/02 02:30:06;;;;;;;5.10;4.47;;;9.90;99.90;;;;;;5094542;28;20213;-74
2021/11/02 02:32:35;;;;;;;6.78;4.43;;;9.90;99.90;;;;;;5093271;28;20309;-73
2021/11/02 02:35:08;;;;;;;6.35;3.72;;;9.80;99.90;;;;;;5093729;28;20208;-73
2021/11/02 02:37:36;;;;;;;4.25;3.63;;;9.80;99.90;;;;;;5093894;28;20209;-73
2021/11/02 02:40:05;;;;;;;4.13;3.50;;;9.60;99.90;;;;;;5093391;28;20755;-73
2021/11/02 02:42:33;;;;;;;4.00;3.60;;;9.60;99.90;;;;;;5093351;28;20312;-73
2021/11/02 02:45:04;;;;;;;4.88;3.45;;;9.70;99.90;;;;;;5093585;28;20210;-73
2021/11/02 02:47:32;;;;;;;3.40;3.03;;;9.70;99.90;;;;;;5093540;28;20668;-73
2021/11/02 02:50:01;;;;;;;3.92;3.22;;;9.80;99.90;;;;;;5093503;28;20202;-73
2021/11/02 02:52:30;;;;;;;3.72;2.88;;;9.70;99.90;;;;;;5093097;28;20308;-73
2021/11/02 02:54:59;;;;;;;1.90;1.48;;;9.90;99.90;;;;;;5093618;28;20617;-75
2021/11/02 02:57:29;;;;;;;3.58;1.65;;;9.90;99.90;;;;;;5093365;28;20725;-74
2021/11/02 02:59:56;;;;;;;1.30;1.30;;;9.90;99.90;;;;;;5093343;28;20656;-74
2021/11/02 03:02:29;;;;;;;1.63;1.30;;;9.90;99.90;;;;;;5095543;28;20226;-74
2021/11/02 03:04:57;;;;;;;2.15;1.38;;;9.90;99.90;;;;;;5097596;28;20208;-74
2021/11/02 03:07:25;;;;;;;1.15;1.10;;;9.90;99.90;;;;;;5097535;28;20289;-74
2021/11/02 03:09:52;;;;;;;1.33;1.00;;;10.00;99.90;;;;;;5097498;28;20582;-74
2021/11/02 03:12:25;;;;;;;3.10;1.08;;;10.00;99.90;;;;;;5097221;28;20314;-74
2021/11/02 03:15:05;;;;;;;1.48;1.02;;;9.90;99.90;;;;;;5097760;28;20557;-74
2021/11/02 03:17:44;;;;;;;1.30;1.20;;;9.80;99.90;;;;;;5097328;28;20270;-74
2021/11/02 03:47:58;;;;;;;0.90;0.90;;;10.30;99.90;;;;;;5096946;28;20552;-74
2021/11/02 03:48:19;;;;;;;1.55;1.20;;;10.30;99.90;;;;;;5096484;28;20718;-75
2021/11/02 03:51:06;;;;;;;1.55;1.10;;;10.30;99.90;;;;;;5096573;28;20198;-74
2021/11/02 03:56:31;;;;;;;1.33;1.25;;;10.20;99.90;;;;;;5096688;28;20204;-74
2021/11/02 04:02:01;;;;;;;0.88;0.88;;;10.20;99.90;;;;;;5055116;28;20638;-74
2021/11/02 04:24:26;;;;;;;2.85;2.05;;;10.00;99.90;;;;;;5095888;28;20220;-74
2021/11/02 04:27:11;;;;;;;2.17;1.40;;;10.00;99.90;;;;;;5096076;28;20213;-74
2021/11/02 05:08:59;;;;;;;1.48;0.98;;;9.50;99.90;;;;;;5095316;28;20227;-74
2021/11/02 05:48:00;;;;;;;0.88;0.88;;;9.00;99.90;;;;;;5094842;28;20204;-74
2021/11/02 05:50:54;;;;;;;1.20;1.10;;;8.90;99.90;;;;;;5094488;28;20590;-73
2021/11/02 05:56:21;;;;;;;3.05;2.13;;;8.80;99.90;;;;;;5094397;28;20198;-74
2021/11/02 05:58:55;;;;;;;0.80;0.80;;;8.80;99.90;;;;;;5094352;28;20262;-74
2021/11/02 06:01:31;;;;;;;2.38;0.77;;;8.90;99.90;;;;;;5093805;28;20233;-73
2021/11/02 06:04:11;;;;;;;1.10;1.00;;;8.90;99.90;;;;;;5094045;28;20198;-74
2021/11/02 06:06:48;;;;;;;1.27;1.17;;;8.90;99.90;;;;;;5093972;28;20252;-74
2021/11/02 06:09:24;;;;;;;2.45;0.90;;;8.90;99.90;;;;;;5094197;28;20212;-74
2021/11/02 06:28:51;;;;;;;1.05;0.73;;;8.90;99.90;;;;;;5093879;28;20201;-74
2021/11/02 06:31:20;;;;;;;1.05;0.70;;;9.00;99.90;;;;;;5093494;28;20229;-74
2021/11/02 06:33:56;;;;;;;1.00;0.80;;;9.00;99.90;;;;;;5093833;28;20206;-74
2021/11/02 06:39:38;;;;;;;0.95;0.80;;;9.00;99.90;;;;;;5059448;28;20194;-74
2021/11/02 06:51:07;;;;;;;5.38;2.20;;;8.50;99.90;;;;;;5093479;28;20196;-74
2021/11/02 06:53:57;;;;;;;4.28;3.08;;;8.40;99.90;;;;;;5093629;28;20201;-74
2021/11/02 06:56:59;;;;;;;6.57;4.25;;;8.20;99.90;;;;;;5093556;28;20593;-74
2021/11/02 07:16:40;;;;;;;7.28;4.05;;;8.30;99.90;;;;;;5093476;28;20201;-74
2021/11/02 07:19:11;;;;;;;10.65;4.10;;;8.30;99.90;;;;;;5093357;28;20668;-74
2021/11/02 07:21:47;;;;;;;7.00;4.20;;;8.30;99.90;;;;;;5093375;28;20313;-73
2021/11/02 07:24:22;;;;;;;6.00;5.00;;;8.50;99.90;;;;;;5093372;28;20308;-74
2021/11/02 07:27:01;;;;;;;5.65;4.07;;;8.50;99.90;;;;;;5093325;28;20548;-74
2021/11/02 08:47:32;;;;;;;0.70;0.70;;;11.00;99.90;;;;;;5095701;28;20191;-74
2021/11/02 08:50:01;;;;;;;1.23;0.95;;;11.10;99.90;;;;;;5095678;28;20203;-74
2021/11/02 08:52:29;;;;;;;1.20;1.10;;;11.30;99.90;;;;;;5095047;28;20222;-74
2021/11/02 08:54:56;;;;;;;1.50;1.38;;;11.30;99.90;;;;;;5095426;28;20244;-74
2021/11/02 08:57:24;;;;;;;1.27;1.17;;;11.30;99.90;;;;;;5095438;28;20559;-74
2021/11/02 08:59:52;;;;;;;1.00;1.00;;;11.40;99.90;;;;;;5095422;28;20655;-74
2021/11/02 09:02:24;;;;;;;2.22;1.40;;;11.40;99.90;;;;;;5094912;28;20317;-74
2021/11/02 09:05:09;;;;;;;1.15;1.08;;;11.40;99.90;;;;;;5095633;28;20221;-74
2021/11/02 09:07:36;;;;;;;1.20;1.10;;;11.30;99.90;;;;;;5095236;28;20202;-74
2021/11/02 09:10:10;;;;;;;3.33;1.50;;;11.30;99.90;;;;;;5095278;28;20309;-74
2021/11/02 09:12:41;;;;;;;1.98;1.27;;;11.20;99.90;;;;;;5094733;28;20299;-74
2021/11/02 09:15:09;;;;;;;3.03;1.38;;;11.30;99.90;;;;;;5095031;28;20205;-74
2021/11/02 09:17:44;;;;;;;7.40;2.15;;;11.30;99.90;;;;;;5095101;28;20293;-74
2021/11/02 09:20:14;;;;;;;1.58;1.48;;;11.30;99.90;;;;;;5095089;28;20570;-74
2021/11/02 09:22:41;;;;;;;1.45;1.33;;;11.30;99.90;;;;;;5094697;28;20316;-74
2021/11/02 09:25:09;;;;;;;0.90;0.90;;;11.30;99.90;;;;;;5094962;28;20198;-74
2021/11/02 09:27:36;;;;;;;1.30;1.20;;;11.20;99.90;;;;;;5094979;28;20208;-74
2021/11/02 09:30:05;;;;;;;1.50;1.40;;;11.20;99.90;;;;;;5094872;28;20289;-74
2021/11/02 09:32:32;;;;;;;1.00;0.90;;;11.20;99.90;;;;;;5094321;28;20305;-74
2021/11/02 09:34:59;;;;;;;1.30;1.10;;;11.10;99.90;;;;;;5094540;28;20204;-74
2021/11/02 09:37:33;;;;;;;1.27;1.08;;;11.00;99.90;;;;;;5094712;28;20233;-74
2021/11/02 09:40:07;;;;;;;1.55;1.35;;;11.00;99.90;;;;;;5094601;28;20690;-74
2021/11/02 09:43:22;;;;;;;1.23;1.10;;;10.90;99.90;;;;;;5094154;28;20316;-74
2021/11/02 09:46:24;;;;;;;1.45;1.02;;;10.90;99.90;;;;;;5094332;28;20206;-74
2021/11/02 09:49:17;;;;;;;1.85;1.00;;;10.80;99.90;;;;;;5094552;28;20206;-74
2021/11/02 09:52:28;;;;;;;1.60;1.38;;;10.80;99.90;;;;;;5060590;28;20249;-73
2021/11/02 09:55:36;;;;;;;1.27;1.20;;;10.80;99.90;;;;;;5078911;28;20202;-74
2021/11/02 09:58:20;;;;;;;0.85;0.85;;;10.90;99.90;;;;;;5078876;28;20229;-74
2021/11/02 10:01:05;;;;;;;0.85;0.85;;;11.00;99.90;;;;;;5094093;28;20202;-74
2021/11/02 10:04:14;;;;;;;3.08;1.10;;;10.90;99.90;;;;;;5094239;28;20276;-74
2021/11/02 10:07:12;;;;;;;1.15;1.00;;;10.90;99.90;;;;;;5093955;28;20255;-74
2021/11/02 10:09:53;;;;;;;1.83;1.13;;;11.00;99.90;;;;;;5093856;28;20289;-74
2021/11/02 10:12:23;;;;;;;1.30;1.10;;;11.00;99.90;;;;;;5093768;28;20222;-74
2021/11/02 10:15:05;;;;;;;3.03;1.35;;;10.90;99.90;;;;;;5094142;28;20206;-74
2021/11/02 10:18:06;;;;;;;1.00;1.00;;;10.90;99.90;;;;;;5092697;28;20277;-74
2021/11/02 10:21:02;;;;;;;2.25;0.90;;;11.00;99.90;;;;;;5093929;28;20202;-74
2021/11/02 10:23:42;;;;;;;2.00;1.38;;;11.00;99.90;;;;;;5093731;28;20656;-74
2021/11/02 10:26:27;;;;;;;1.20;1.10;;;11.10;99.90;;;;;;5093940;28;20201;-74
2021/11/02 10:29:30;;;;;;;1.13;1.08;;;11.00;99.90;;;;;;5093817;28;20202;-74
2021/11/02 10:32:03;;;;;;;2.10;1.00;;;11.00;99.90;;;;;;5070145;28;20275;-74
2021/11/02 10:34:35;;;;;;;1.00;0.90;;;10.80;99.90;;;;;;5093745;28;20198;-74
2021/11/02 10:37:30;;;;;;;1.95;1.20;;;10.70;99.90;;;;;;5093728;28;20206;-74
2021/11/02 10:40:36;;;;;;;2.08;1.40;;;10.80;99.90;;;;;;5093352;28;20293;-74
2021/11/02 10:43:23;;;;;;;1.00;0.90;;;10.90;99.90;;;;;;5093216;28;20237;-74
2021/11/02 10:45:55;;;;;;;1.48;1.38;;;10.80;99.90;;;;;;5093871;28;20208;-74
2021/11/02 10:48:30;;;;;;;1.45;1.35;;;10.70;99.90;;;;;;5093716;28;20210;-74
2021/11/02 10:51:05;;;;;;;1.30;1.10;;;10.70;99.90;;;;;;5093472;28;20213;-74
2021/11/02 10:53:37;;;;;;;1.23;1.13;;;10.70;99.90;;;;;;5093447;28;20292;-74
2021/11/02 10:56:11;;;;;;;2.20;1.30;;;10.70;99.90;;;;;;5094041;28;20206;-74
2021/11/02 10:58:43;;;;;;;1.20;1.10;;;10.80;99.90;;;;;;5093617;28;20206;-74
2021/11/02 11:01:12;;;;;;;1.10;0.85;;;10.80;99.90;;;;;;5093329;28;20221;-74
2021/11/02 11:03:42;;;;;;;1.35;1.10;;;10.80;99.90;;;;;;5093491;28;20254;-74
2021/11/02 11:06:11;;;;;;;0.93;0.90;;;10.90;99.90;;;;;;5093383;28;20202;-74
2021/11/02 11:08:39;;;;;;;3.15;0.93;;;10.90;99.90;;;;;;5093533;28;20228;-74
2021/11/02 11:11:08;;;;;;;1.48;0.90;;;10.90;99.90;;;;;;5093241;28;20225;-74
2021/11/02 11:13:37;;;;;;;2.95;1.25;;;11.00;99.90;;;;;;5093274;28;20670;-74
2021/11/02 11:16:09;;;;;;;1.05;1.05;;;11.00;99.90;;;;;;5093408;28;20202;-74
2021/11/02 11:18:52;;;;;;;1.05;1.02;;;11.10;99.90;;;;;;5093432;28;20299;-74
2021/11/02 11:21:20;;;;;;;1.40;1.30;;;11.10;99.90;;;;;;5093149;28;20222;-74
2021/11/02 11:23:55;;;;;;;1.30;1.17;;;11.00;99.90;;;;;;5096334;28;20253;-74
2021/11/02 11:26:26;;;;;;;1.40;1.30;;;11.00;99.90;;;;;;5097157;28;20198;-74
2021/11/02 11:28:54;;;;;;;1.40;1.10;;;11.00;99.90;;;;;;5097303;28;20210;-74
2021/11/02 11:31:22;;;;;;;1.73;1.15;;;11.10;99.90;;;;;;5096844;28;20592;-73
2021/11/02 11:34:00;;;;;;;1.75;1.30;;;11.00;99.90;;;;;;5096891;28;20289;-74
2021/11/02 11:36:29;;;;;;;1.33;1.20;;;11.00;99.90;;;;;;5087553;28;20218;-73
2021/11/02 11:38:59;;;;;;;2.05;1.40;;;11.10;99.90;;;;;;5081775;28;20217;-73
2021/11/02 11:41:27;;;;;;;1.10;1.02;;;11.20;99.90;;;;;;5075141;28;20225;-72
2021/11/02 11:43:55;;;;;;;2.28;1.65;;;11.30;99.90;;;;;;5075038;28;20309;-73
2021/11/02 11:46:24;;;;;;;1.50;1.40;;;11.40;99.90;;;;;;5075625;28;20246;-73
2021/11/02 11:48:56;;;;;;;1.40;1.30;;;11.50;99.90;;;;;;5075725;28;20572;-72
2021/11/02 11:51:24;;;;;;;1.60;1.00;;;11.60;99.90;;;;;;5075150;28;20219;-72
2021/11/02 11:53:57;;;;;;;2.05;1.20;;;11.70;99.90;;;;;;5075083;28;20732;-73
2021/11/02 11:56:28;;;;;;;1.70;1.35;;;11.90;99.90;;;;;;5074875;28;20678;-72
2021/11/02 11:58:56;;;;;;;1.75;1.20;;;11.90;99.90;;;;;;5075366;28;20203;-73
2021/11/02 12:01:28;;;;;;;2.15;1.27;;;11.90;99.90;;;;;;5075053;28;20222;-72
2021/11/02 12:04:03;;;;;;;1.23;1.13;;;12.10;99.90;;;;;;5074823;28;20225;-72
2021/11/02 12:06:35;;;;;;;1.38;1.27;;;12.20;99.90;;;;;;5075052;28;20296;-73
2021/11/02 12:09:06;;;;;;;1.40;1.20;;;12.40;99.90;;;;;;5075171;28;20187;-73
2021/11/02 12:11:35;;;;;;;1.20;1.10;;;12.50;99.90;;;;;;5074843;28;20233;-72
2021/11/02 12:14:07;;;;;;;1.10;1.00;;;12.50;99.90;;;;;;5074934;28;20207;-73
2021/11/02 12:16:38;;;;;;;2.35;0.88;;;12.50;99.90;;;;;;5075008;28;20289;-73
2021/11/02 12:19:10;;;;;;;2.35;1.80;;;12.40;99.90;;;;;;5074705;28;20199;-73
2021/11/02 12:21:39;;;;;;;0.80;0.80;;;12.40;99.90;;;;;;5074794;28;20227;-73
2021/11/02 12:24:09;;;;;;;1.00;1.00;;;12.30;99.90;;;;;;5074473;28;20219;-73
2021/11/02 12:26:45;;;;;;;0.77;0.77;;;12.30;99.90;;;;;;5074662;28;20234;-73
2021/11/02 12:29:21;;;;;;;0.70;0.70;;;12.30;99.90;;;;;;5074659;28;20289;-74
2021/11/02 12:31:56;;;;;;;1.15;1.05;;;12.30;99.90;;;;;;5074523;28;20229;-73
2021/11/02 12:34:27;;;;;;;1.27;0.90;;;12.20;99.90;;;;;;5074555;28;20301;-73
2021/11/02 12:36:56;;;;;;;0.40;0.40;;;12.30;99.90;;;;;;5074441;28;20203;-73
2021/11/02 12:39:27;;;;;;;0.50;0.45;;;12.20;99.90;;;;;;5074183;28;20288;-72
2021/11/02 12:41:56;;;;;;;0.70;0.70;;;12.20;99.90;;;;;;5074059;28;20284;-73
2021/11/02 12:44:26;;;;;;;4.45;2.90;;;12.10;99.90;;;;;;5074480;28;20230;-73
2021/11/02 12:46:53;;;;;;;0.88;0.88;;;12.10;99.90;;;;;;5074075;28;20272;-72
2021/11/02 12:49:32;;;;;;;0.60;0.60;;;12.10;99.90;;;;;;5074154;28;20207;-73
2021/11/02 12:52:04;;;;;;;0.50;0.50;;;12.10;99.90;;;;;;5074167;28;20588;-72
2021/11/02 12:54:32;;;;;;;0.50;0.50;;;12.10;99.90;;;;;;5074053;28;20664;-73
2021/11/02 12:57:04;;;;;;;0.65;0.50;;;12.20;99.90;;;;;;5074266;28;20252;-73
2021/11/02 12:59:40;;;;;;;0.60;0.50;;;12.20;99.90;;;;;;5074091;28;20293;-72
2021/11/02 13:02:17;;;;;;;0.50;0.40;;;12.30;99.90;;;;;;5073265;28;20226;-73
2021/11/02 13:04:49;;;;;;;0.40;0.30;;;12.30;99.90;;;;;;5073872;28;20361;-72
2021/11/02 13:07:16;;;;;;;0.45;0.30;;;12.30;99.90;;;;;;5073686;28;20294;-72
2021/11/02 13:09:50;;;;;;;0.60;0.40;;;12.40;99.90;;;;;;5073626;28;20213;-72
2021/11/02 13:12:20;;;;;;;0.60;0.40;;;12.40;99.90;;;;;;5073201;28;20723;-72
2021/11/02 13:14:49;;;;;;;0.40;0.30;;;12.50;99.90;;;;;;5073465;28;20337;-72
2021/11/02 13:17:23;;;;;;;0.57;0.50;;;12.60;99.90;;;;;;5073339;28;20256;-73
2021/11/02 13:19:54;;;;;;;0.52;0.40;;;12.70;99.90;;;;;;5073101;28;20305;-72
2021/11/02 13:22:23;;;;;;;6.30;1.80;;;12.70;99.90;;;;;;5073206;28;20313;-72
2021/11/02 13:25:00;;;;;;;0.38;0.38;;;12.60;99.90;;;;;;5073441;28;20314;-72
2021/11/02 13:27:31;;;;;;;0.98;0.47;;;12.50;99.90;;;;;;5073187;28;20210;-72
2021/11/02 13:30:27;;;;;;;0.45;0.45;;;12.50;99.90;;;;;;5072973;28;20205;-72
2021/11/02 13:33:05;;;;;;;0.60;0.40;;;12.50;99.90;;;;;;5072869;28;20317;-72
2021/11/02 13:35:48;;;;;;;0.40;0.30;;;12.50;99.90;;;;;;5073146;28;20202;-73
2021/11/02 13:38:24;;;;;;;0.50;0.47;;;12.40;99.90;;;;;;5072940;28;20286;-74
2021/11/02 13:40:51;;;;;;;0.55;0.55;;;12.30;99.90;;;;;;5072985;28;20206;-73
2021/11/02 13:43:25;;;;;;;0.60;0.40;;;12.30;99.90;;;;;;5072826;28;20294;-74
2021/11/02 13:45:54;;;;;;;0.52;0.40;;;12.30;99.90;;;;;;5072281;28;20202;-74
2021/11/02 13:48:21;;;;;;;0.45;0.45;;;12.20;99.90;;;;;;5072738;28;20210;-74
2021/11/02 13:50:49;;;;;;;0.40;0.22;;;12.10;99.90;;;;;;5072688;28;20213;-74
2021/11/02 13:53:16;;;;;;;0.60;0.43;;;12.10;99.90;;;;;;5072397;28;20207;-72
2021/11/02 13:55:43;;;;;;;0.50;0.45;;;12.10;99.90;;;;;;5072788;28;20199;-74
2021/11/02 13:58:10;;;;;;;0.40;0.30;;;12.10;99.90;;;;;;5073003;28;20206;-74
2021/11/02 14:00:39;;;;;;;0.80;0.50;;;12.20;99.90;;;;;;5072998;28;20294;-74
2021/11/02 14:03:10;;;;;;;0.40;0.40;;;12.20;99.90;;;;;;5072680;28;20235;-74
2021/11/02 14:05:38;;;;;;;0.40;0.40;;;12.10;99.90;;;;;;5072930;28;20574;-74
2021/11/02 14:08:06;;;;;;;0.57;0.57;;;12.10;99.90;;;;;;5073043;28;20214;-74
2021/11/02 14:10:33;;;;;;;0.35;0.35;;;12.10;99.90;;;;;;5073000;28;20565;-77
2021/11/02 14:12:59;;;;;;;1.25;0.68;;;12.10;99.90;;;;;;5073250;28;20336;-77
2021/11/02 14:15:29;;;;;;;0.57;0.57;;;12.10;99.90;;;;;;5073524;28;20217;-77
2021/11/02 14:18:13;;;;;;;0.88;0.60;;;12.20;99.90;;;;;;5073696;28;20700;-75
2021/11/02 14:20:41;;;;;;;0.40;0.40;;;12.30;99.90;;;;;;5073004;28;20206;-75
2021/11/02 14:23:10;;;;;;;0.40;0.38;;;12.40;99.90;;;;;;5073434;28;20324;-75
2021/11/02 14:25:38;;;;;;;0.50;0.47;;;12.50;99.90;;;;;;5073742;28;20226;-75
2021/11/02 14:28:07;;;;;;;0.38;0.38;;;12.60;99.90;;;;;;5073799;28;20570;-75
2021/11/02 14:30:42;;;;;;;0.30;0.30;;;12.60;99.90;;;;;;5073728;28;20210;-75
2021/11/02 14:33:11;;;;;;;0.47;0.43;;;12.60;99.90;;;;;;5073593;28;20309;-75
2021/11/02 14:35:49;;;;;;;1.00;0.73;;;12.50;99.90;;;;;;5073927;28;20194;-75
2021/11/02 14:38:19;;;;;;;1.00;0.73;;;12.50;99.90;;;;;;5074104;28;20546;-75
2021/11/02 14:40:47;;;;;;;0.82;0.50;;;12.50;99.90;;;;;;5073370;28;20216;-75
2021/11/02 14:43:29;;;;;;;0.50;0.50;;;12.50;99.90;;;;;;5073291;28;20747;-75
2021/11/02 14:45:59;;;;;;;0.68;0.52;;;12.40;99.90;;;;;;5073755;28;20253;-76
2021/11/02 14:48:38;;;;;;;1.10;0.65;;;12.40;99.90;;;;;;5074572;28;20244;-76
2021/11/02 14:51:07;;;;;;;1.88;0.60;;;12.30;99.90;;;;;;5074307;28;20392;-75
2021/11/02 14:53:35;;;;;;;0.88;0.88;;;12.30;99.90;;;;;;5074741;28;20206;-76
2021/11/02 14:56:05;;;;;;;0.80;0.50;;;12.20;99.90;;;;;;5075300;28;20256;-76
2021/11/02 14:58:47;;;;;;;1.35;0.80;;;12.20;99.90;;;;;;5079167;28;20199;-76
2021/11/02 15:01:16;;;;;;;0.60;0.50;;;12.20;99.90;;;;;;5078887;28;20317;-75
2021/11/02 15:03:52;;;;;;;0.60;0.50;;;12.10;99.90;;;;;;5078452;28;20241;-75
2021/11/02 15:06:20;;;;;;;0.73;0.63;;;12.10;99.90;;;;;;5078269;28;20288;-76
2021/11/02 15:08:48;;;;;;;1.42;1.00;;;12.10;99.90;;;;;;5078281;28;20202;-76
2021/11/02 15:11:17;;;;;;;0.40;0.40;;;12.10;99.90;;;;;;5078443;28;20229;-75
2021/11/02 15:13:48;;;;;;;0.73;0.45;;;12.10;99.90;;;;;;5078187;28;20209;-76
2021/11/02 15:16:15;;;;;;;0.40;0.40;;;12.00;99.90;;;;;;5077635;28;20732;-76
2021/11/02 15:18:46;;;;;;;0.82;0.32;;;12.00;99.90;;;;;;5078147;28;20230;-76
2021/11/02 15:21:21;;;;;;;1.17;0.68;;;11.90;99.90;;;;;;5078099;28;20762;-75
2021/11/02 15:23:50;;;;;;;0.60;0.60;;;11.90;99.90;;;;;;5078569;28;20206;-76
2021/11/02 15:26:18;;;;;;;0.88;0.70;;;11.80;99.90;;;;;;5078313;28;20198;-76
2021/11/02 15:28:46;;;;;;;0.40;0.40;;;11.70;99.90;;;;;;5077796;28;20214;-76
2021/11/02 15:31:15;;;;;;;0.38;0.38;;;11.70;99.90;;;;;;5078394;28;20226;-75
2021/11/02 15:33:44;;;;;;;0.68;0.40;;;11.70;99.90;;;;;;5077994;28;20206;-76
2021/11/02 15:36:18;;;;;;;0.50;0.30;;;11.60;99.90;;;;;;5077372;28;20285;-76
2021/11/02 15:38:56;;;;;;;0.55;0.55;;;11.50;99.90;;;;;;5077232;28;20692;-76
2021/11/02 15:41:24;;;;;;;1.63;0.65;;;11.50;99.90;;;;;;5077005;28;20231;-75
2021/11/02 15:43:59;;;;;;;0.50;0.50;;;11.40;99.90;;;;;;5076936;28;20203;-75
2021/11/02 15:46:34;;;;;;;1.02;0.93;;;11.30;99.90;;;;;;5076985;28;20665;-76
2021/11/02 15:49:04;;;;;;;0.60;0.45;;;11.20;99.90;;;;;;5076944;28;20213;-75
2021/11/02 15:51:36;;;;;;;0.45;0.45;;;11.10;99.90;;;;;;5076569;28;20233;-75
2021/11/02 15:54:08;;;;;;;0.50;0.30;;;11.00;99.90;;;;;;5077244;28;20197;-75
2021/11/02 15:56:36;;;;;;;1.15;0.40;;;10.90;99.90;;;;;;5076670;28;20234;-75
2021/11/02 15:59:05;;;;;;;8.48;4.70;;;10.80;99.90;;;;;;5076909;28;20209;-75
2021/11/02 16:01:33;;;;;;;2.47;1.60;;;10.80;99.90;;;;;;5076455;28;20223;-75
2021/11/02 16:04:17;;;;;;;0.75;0.68;;;10.70;99.90;;;;;;5078540;28;20209;-76
2021/11/02 16:06:58;;;;;;;0.52;0.52;;;10.70;99.90;;;;;;5086739;28;20249;-77
2021/11/02 16:09:27;;;;;;;0.40;0.40;;;10.70;99.90;;;;;;5075315;28;20210;-76
2021/11/02 16:11:55;;;;;;;0.40;0.35;;;10.70;99.90;;;;;;5076053;28;20222;-76
2021/11/02 16:14:23;;;;;;;0.80;0.40;;;10.70;99.90;;;;;;5076053;28;20203;-76
2021/11/02 16:16:50;;;;;;;0.80;0.55;;;10.70;99.90;;;;;;5075325;28;20298;-76
2021/11/02 16:19:19;;;;;;;0.75;0.70;;;10.80;99.90;;;;;;5075492;28;20206;-76
2021/11/02 16:21:47;;;;;;;0.60;0.60;;;10.80;99.90;;;;;;5082518;28;20228;-76
2021/11/02 16:24:14;;;;;;;0.60;0.57;;;10.80;99.90;;;;;;5095597;28;20297;-76
2021/11/02 16:26:42;;;;;;;1.00;0.77;;;10.90;99.90;;;;;;5094905;28;20204;-77
2021/11/02 16:29:11;;;;;;;2.67;1.08;;;10.90;99.90;;;;;;5094933;28;20300;-76
2021/11/02 16:31:38;;;;;;;3.92;2.75;;;10.90;99.90;;;;;;5095443;28;20226;-76
2021/11/02 16:34:16;;;;;;;3.53;2.38;;;11.00;99.90;;;;;;5096471;28;20206;-76
2021/11/02 16:36:44;;;;;;;1.20;1.00;;;11.00;99.90;;;;;;5096076;28;20339;-75
2021/11/02 16:39:20;;;;;;;1.95;1.00;;;11.00;99.90;;;;;;5095673;28;20209;-75
2021/11/02 16:41:49;;;;;;;0.88;0.70;;;11.00;99.90;;;;;;5095573;28;20222;-75
2021/11/02 16:44:17;;;;;;;1.17;0.90;;;11.00;99.90;;;;;;5095717;28;20288;-75
2021/11/02 16:46:48;;;;;;;2.28;1.73;;;11.00;99.90;;;;;;5095820;28;20330;-75
2021/11/02 16:49:22;;;;;;;1.10;1.00;;;11.00;99.90;;;;;;5095695;28;20202;-75
2021/11/02 16:51:52;;;;;;;1.52;1.15;;;11.10;99.90;;;;;;5095301;28;20232;-75
2021/11/02 16:54:22;;;;;;;1.60;1.10;;;11.10;99.90;;;;;;5096107;28;20202;-75
2021/11/02 16:57:10;;;;;;;1.20;1.10;;;11.10;99.90;;;;;;5095582;28;20198;-75
2021/11/02 16:59:54;;;;;;;1.23;1.13;;;11.00;99.90;;;;;;5095583;28;20614;-75
2021/11/02 17:02:23;;;;;;;0.98;0.80;;;10.90;99.90;;;;;;5094984;28;20310;-75
2021/11/02 17:05:06;;;;;;;1.17;1.08;;;10.80;99.90;;;;;;5095252;28;20696;-75
2021/11/02 17:07:38;;;;;;;3.22;2.15;;;10.80;99.90;;;;;;5095371;28;20244;-75
2021/11/02 17:10:38;;;;;;;1.42;1.33;;;10.80;99.90;;;;;;5095397;28;20206;-75
2021/11/02 17:13:07;;;;;;;1.30;1.20;;;10.80;99.90;;;;;;5032542;28;20231;-75
2021/11/02 17:15:37;;;;;;;5.90;3.28;;;10.80;99.90;;;;;;5082905;28;20198;-75
2021/11/02 17:18:06;;;;;;;2.15;1.90;;;10.70;99.90;;;;;;5095162;28;20623;-75
2021/11/02 17:20:33;;;;;;;1.40;1.10;;;10.70;99.90;;;;;;5094013;28;20238;-75
2021/11/02 17:23:03;;;;;;;1.20;1.10;;;10.70;99.90;;;;;;5094799;28;20717;-75
2021/11/02 17:25:30;;;;;;;1.00;0.90;;;10.70;99.90;;;;;;5095056;28;20654;-75
2021/11/02 17:27:57;;;;;;;1.48;0.95;;;10.70;99.90;;;;;;5094747;28;20293;-75
2021/11/02 17:30:26;;;;;;;3.88;2.15;;;10.70;99.90;;;;;;5094923;28;20625;-74
2021/11/02 17:32:55;;;;;;;16.60;7.40;;;10.60;99.90;;;;;;5094644;28;20579;-75